sensor_id;sensor_type;location;lat;lon;timestamp;P1;durP1;ratioP1;P2;durP2;ratioP2
77769;SDS011;66961;51.482;9.160;2023-11-18T00:00:57;19.03;;;8.90;;
77769;SDS011;66961;51.482;9.160;2023-11-18T00:03:22;19.70;;;8.25;;
77769;SDS011;66961;51.482;9.160;2023-11-18T00:05:48;19.73;;;9.07;;
77769;SDS011;66961;51.482;9.160;2023-11-18T00:08:13;21.37;;;9.67;;
77769;SDS011;66961;51.482;9.160;2023-11-18T00:10:38;19.23;;;8.87;;
77769;SDS011;66961;51.482;9.160;2023-11-18T00:13:04;17.17;;;8.63;;
77769;SDS011;66961;51.482;9.160;2023-11-18T00:15:29;20.10;;;9.33;;
77769;SDS011;66961;51.482;9.160;2023-11-18T00:17:54;18.57;;;9.27;;
77769;SDS011;66961;51.482;9.160;2023-11-18T00:20:19;20.63;;;9.13;;
77769;SDS011;66961;51.482;9.160;2023-11-18T00:22:45;17.20;;;9.67;;
77769;SDS011;66961;51.482;9.160;2023-11-18T00:25:10;17.63;;;9.13;;
77769;SDS011;66961;51.482;9.160;2023-11-18T00:27:35;17.77;;;8.67;;
77769;SDS011;66961;51.482;9.160;2023-11-18T00:30:00;19.87;;;9.17;;
77769;SDS011;66961;51.482;9.160;2023-11-18T00:32:26;17.53;;;8.77;;
77769;SDS011;66961;51.482;9.160;2023-11-18T00:34:51;20.03;;;10.17;;
77769;SDS011;66961;51.482;9.160;2023-11-18T00:37:16;20.13;;;9.37;;
77769;SDS011;66961;51.482;9.160;2023-11-18T00:39:41;16.17;;;8.23;;
77769;SDS011;66961;51.482;9.160;2023-11-18T00:42:07;14.37;;;8.23;;
77769;SDS011;66961;51.482;9.160;2023-11-18T00:44:32;14.77;;;7.63;;
77769;SDS011;66961;51.482;9.160;2023-11-18T00:46:57;12.67;;;7.67;;
77769;SDS011;66961;51.482;9.160;2023-11-18T00:49:23;14.43;;;8.03;;
77769;SDS011;66961;51.482;9.160;2023-11-18T00:51:48;14.23;;;7.82;;
77769;SDS011;66961;51.482;9.160;2023-11-18T00:54:13;13.95;;;7.43;;
77769;SDS011;66961;51.482;9.160;2023-11-18T00:56:39;15.93;;;8.03;;
77769;SDS011;66961;51.482;9.160;2023-11-18T00:59:04;14.80;;;7.97;;
77769;SDS011;66961;51.482;9.160;2023-11-18T01:01:29;15.83;;;7.77;;
77769;SDS011;66961;51.482;9.160;2023-11-18T01:03:55;16.03;;;7.70;;
77769;SDS011;66961;51.482;9.160;2023-11-18T01:06:20;14.33;;;8.17;;
77769;SDS011;66961;51.482;9.160;2023-11-18T01:08:45;12.40;;;7.10;;
77769;SDS011;66961;51.482;9.160;2023-11-18T01:11:17;14.13;;;6.97;;
77769;SDS011;66961;51.482;9.160;2023-11-18T01:13:43;15.43;;;7.10;;
77769;SDS011;66961;51.482;9.160;2023-11-18T01:16:08;12.47;;;7.13;;
77769;SDS011;66961;51.482;9.160;2023-11-18T01:18:33;15.67;;;7.80;;
77769;SDS011;66961;51.482;9.160;2023-11-18T01:20:59;14.60;;;7.43;;
77769;SDS011;66961;51.482;9.160;2023-11-18T01:23:24;17.13;;;9.40;;
77769;SDS011;66961;51.482;9.160;2023-11-18T01:25:49;12.53;;;6.67;;
77769;SDS011;66961;51.482;9.160;2023-11-18T01:28:15;15.63;;;7.33;;
77769;SDS011;66961;51.482;9.160;2023-11-18T01:30:40;16.33;;;7.40;;
77769;SDS011;66961;51.482;9.160;2023-11-18T01:33:05;16.80;;;8.17;;
77769;SDS011;66961;51.482;9.160;2023-11-18T01:35:30;12.50;;;7.13;;
77769;SDS011;66961;51.482;9.160;2023-11-18T01:37:56;16.47;;;7.83;;
77769;SDS011;66961;51.482;9.160;2023-11-18T01:40:21;15.33;;;8.00;;
77769;SDS011;66961;51.482;9.160;2023-11-18T01:42:46;16.73;;;7.87;;
77769;SDS011;66961;51.482;9.160;2023-11-18T01:45:15;17.13;;;7.80;;
77769;SDS011;66961;51.482;9.160;2023-11-18T01:47:40;16.15;;;7.88;;
77769;SDS011;66961;51.482;9.160;2023-11-18T01:50:07;19.83;;;9.68;;
77769;SDS011;66961;51.482;9.160;2023-11-18T01:52:35;22.15;;;10.45;;
77769;SDS011;66961;51.482;9.160;2023-11-18T01:55:01;18.65;;;8.50;;
77769;SDS011;66961;51.482;9.160;2023-11-18T01:57:27;18.50;;;9.60;;
77769;SDS011;66961;51.482;9.160;2023-11-18T01:59:55;17.20;;;9.13;;
77769;SDS011;66961;51.482;9.160;2023-11-18T02:02:21;18.13;;;8.90;;
77769;SDS011;66961;51.482;9.160;2023-11-18T02:04:46;18.58;;;8.00;;
77769;SDS011;66961;51.482;9.160;2023-11-18T02:07:12;15.13;;;7.38;;
77769;SDS011;66961;51.482;9.160;2023-11-18T02:09:38;17.58;;;7.90;;
77769;SDS011;66961;51.482;9.160;2023-11-18T02:12:21;14.63;;;7.93;;
77769;SDS011;66961;51.482;9.160;2023-11-18T02:14:51;17.20;;;8.10;;
77769;SDS011;66961;51.482;9.160;2023-11-18T02:17:21;15.43;;;7.75;;
77769;SDS011;66961;51.482;9.160;2023-11-18T02:19:46;15.27;;;7.65;;
77769;SDS011;66961;51.482;9.160;2023-11-18T02:22:12;13.95;;;8.00;;
77769;SDS011;66961;51.482;9.160;2023-11-18T02:24:38;15.13;;;8.07;;
77769;SDS011;66961;51.482;9.160;2023-11-18T02:27:04;16.73;;;7.78;;
77769;SDS011;66961;51.482;9.160;2023-11-18T02:29:32;14.90;;;7.75;;
77769;SDS011;66961;51.482;9.160;2023-11-18T02:31:59;15.73;;;7.75;;
77769;SDS011;66961;51.482;9.160;2023-11-18T02:34:36;14.05;;;7.63;;
77769;SDS011;66961;51.482;9.160;2023-11-18T02:37:09;14.85;;;7.78;;
77769;SDS011;66961;51.482;9.160;2023-11-18T02:39:39;12.18;;;7.05;;
77769;SDS011;66961;51.482;9.160;2023-11-18T02:42:07;17.92;;;8.20;;
77769;SDS011;66961;51.482;9.160;2023-11-18T02:44:34;19.15;;;7.93;;
77769;SDS011;66961;51.482;9.160;2023-11-18T02:47:01;18.02;;;8.20;;
77769;SDS011;66961;51.482;9.160;2023-11-18T02:49:26;19.27;;;7.95;;
77769;SDS011;66961;51.482;9.160;2023-11-18T02:51:52;15.47;;;8.53;;
77769;SDS011;66961;51.482;9.160;2023-11-18T02:54:17;18.20;;;8.23;;
77769;SDS011;66961;51.482;9.160;2023-11-18T02:56:42;15.57;;;7.80;;
77769;SDS011;66961;51.482;9.160;2023-11-18T02:59:07;14.13;;;8.07;;
77769;SDS011;66961;51.482;9.160;2023-11-18T03:01:33;18.70;;;8.10;;
77769;SDS011;66961;51.482;9.160;2023-11-18T03:03:59;14.05;;;7.43;;
77769;SDS011;66961;51.482;9.160;2023-11-18T03:06:24;16.45;;;7.38;;
77769;SDS011;66961;51.482;9.160;2023-11-18T03:08:49;18.17;;;7.77;;
77769;SDS011;66961;51.482;9.160;2023-11-18T03:11:15;15.70;;;8.10;;
77769;SDS011;66961;51.482;9.160;2023-11-18T03:13:40;18.80;;;8.73;;
77769;SDS011;66961;51.482;9.160;2023-11-18T03:16:08;14.43;;;7.40;;
77769;SDS011;66961;51.482;9.160;2023-11-18T03:18:34;17.08;;;8.48;;
77769;SDS011;66961;51.482;9.160;2023-11-18T03:20:59;16.93;;;8.30;;
77769;SDS011;66961;51.482;9.160;2023-11-18T03:23:24;20.03;;;8.37;;
77769;SDS011;66961;51.482;9.160;2023-11-18T03:25:50;17.23;;;7.57;;
77769;SDS011;66961;51.482;9.160;2023-11-18T03:28:15;16.60;;;7.93;;
77769;SDS011;66961;51.482;9.160;2023-11-18T03:30:40;14.73;;;8.27;;
77769;SDS011;66961;51.482;9.160;2023-11-18T03:33:05;23.47;;;10.53;;
77769;SDS011;66961;51.482;9.160;2023-11-18T03:35:31;20.25;;;9.57;;
77769;SDS011;66961;51.482;9.160;2023-11-18T03:37:56;21.27;;;10.32;;
77769;SDS011;66961;51.482;9.160;2023-11-18T03:40:21;19.47;;;9.00;;
77769;SDS011;66961;51.482;9.160;2023-11-18T03:42:47;19.60;;;9.68;;
77769;SDS011;66961;51.482;9.160;2023-11-18T03:45:12;22.50;;;9.57;;
77769;SDS011;66961;51.482;9.160;2023-11-18T03:47:37;20.40;;;9.13;;
77769;SDS011;66961;51.482;9.160;2023-11-18T03:50:03;19.92;;;9.07;;
77769;SDS011;66961;51.482;9.160;2023-11-18T03:52:28;20.50;;;9.60;;
77769;SDS011;66961;51.482;9.160;2023-11-18T03:54:54;18.27;;;8.90;;
77769;SDS011;66961;51.482;9.160;2023-11-18T03:57:19;26.88;;;9.25;;
77769;SDS011;66961;51.482;9.160;2023-11-18T03:59:44;16.80;;;8.63;;
77769;SDS011;66961;51.482;9.160;2023-11-18T04:02:10;18.73;;;8.77;;
77769;SDS011;66961;51.482;9.160;2023-11-18T04:04:35;18.13;;;8.43;;
77769;SDS011;66961;51.482;9.160;2023-11-18T04:07:00;19.87;;;8.10;;
77769;SDS011;66961;51.482;9.160;2023-11-18T04:09:26;20.33;;;8.63;;
77769;SDS011;66961;51.482;9.160;2023-11-18T04:11:52;16.65;;;7.50;;
77769;SDS011;66961;51.482;9.160;2023-11-18T04:14:17;21.48;;;7.82;;
77769;SDS011;66961;51.482;9.160;2023-11-18T04:16:44;21.35;;;8.48;;
77769;SDS011;66961;51.482;9.160;2023-11-18T04:19:10;20.33;;;8.88;;
77769;SDS011;66961;51.482;9.160;2023-11-18T04:21:35;15.07;;;8.10;;
77769;SDS011;66961;51.482;9.160;2023-11-18T04:24:00;17.23;;;8.77;;
77769;SDS011;66961;51.482;9.160;2023-11-18T04:26:26;18.40;;;8.20;;
77769;SDS011;66961;51.482;9.160;2023-11-18T04:28:51;17.97;;;7.90;;
77769;SDS011;66961;51.482;9.160;2023-11-18T04:31:16;17.57;;;8.20;;
77769;SDS011;66961;51.482;9.160;2023-11-18T04:33:41;17.30;;;7.93;;
77769;SDS011;66961;51.482;9.160;2023-11-18T04:36:07;17.17;;;8.03;;
77769;SDS011;66961;51.482;9.160;2023-11-18T04:38:34;17.02;;;8.65;;
77769;SDS011;66961;51.482;9.160;2023-11-18T04:40:59;16.83;;;8.13;;
77769;SDS011;66961;51.482;9.160;2023-11-18T04:43:25;15.77;;;8.13;;
77769;SDS011;66961;51.482;9.160;2023-11-18T04:45:50;19.63;;;7.83;;
77769;SDS011;66961;51.482;9.160;2023-11-18T04:48:15;14.73;;;8.00;;
77769;SDS011;66961;51.482;9.160;2023-11-18T04:50:43;20.50;;;8.87;;
77769;SDS011;66961;51.482;9.160;2023-11-18T04:53:09;16.45;;;8.07;;
77769;SDS011;66961;51.482;9.160;2023-11-18T04:55:34;18.27;;;7.80;;
77769;SDS011;66961;51.482;9.160;2023-11-18T04:57:59;16.77;;;8.27;;
77769;SDS011;66961;51.482;9.160;2023-11-18T05:00:25;17.63;;;9.67;;
77769;SDS011;66961;51.482;9.160;2023-11-18T05:02:50;19.80;;;8.40;;
77769;SDS011;66961;51.482;9.160;2023-11-18T05:05:15;17.53;;;8.13;;
77769;SDS011;66961;51.482;9.160;2023-11-18T05:07:41;14.13;;;7.00;;
77769;SDS011;66961;51.482;9.160;2023-11-18T05:10:07;17.27;;;8.30;;
77769;SDS011;66961;51.482;9.160;2023-11-18T05:12:34;14.68;;;7.25;;
77769;SDS011;66961;51.482;9.160;2023-11-18T05:14:59;19.93;;;8.53;;
77769;SDS011;66961;51.482;9.160;2023-11-18T05:17:26;16.25;;;8.20;;
77769;SDS011;66961;51.482;9.160;2023-11-18T05:19:52;16.30;;;8.18;;
77769;SDS011;66961;51.482;9.160;2023-11-18T05:22:17;16.30;;;8.48;;
77769;SDS011;66961;51.482;9.160;2023-11-18T05:24:43;19.57;;;7.83;;
77769;SDS011;66961;51.482;9.160;2023-11-18T05:27:09;15.82;;;8.10;;
77769;SDS011;66961;51.482;9.160;2023-11-18T05:29:34;21.13;;;7.95;;
77769;SDS011;66961;51.482;9.160;2023-11-18T05:31:59;16.00;;;7.67;;
77769;SDS011;66961;51.482;9.160;2023-11-18T05:34:24;23.50;;;9.30;;
77769;SDS011;66961;51.482;9.160;2023-11-18T05:36:50;16.47;;;8.47;;
77769;SDS011;66961;51.482;9.160;2023-11-18T05:39:15;15.60;;;8.10;;
77769;SDS011;66961;51.482;9.160;2023-11-18T05:41:40;15.33;;;7.40;;
77769;SDS011;66961;51.482;9.160;2023-11-18T05:44:06;15.05;;;7.55;;
77769;SDS011;66961;51.482;9.160;2023-11-18T05:46:32;12.38;;;6.80;;
77769;SDS011;66961;51.482;9.160;2023-11-18T05:48:59;16.53;;;8.10;;
77769;SDS011;66961;51.482;9.160;2023-11-18T05:51:27;17.20;;;7.97;;
77769;SDS011;66961;51.482;9.160;2023-11-18T05:53:52;14.80;;;8.00;;
77769;SDS011;66961;51.482;9.160;2023-11-18T05:56:18;15.25;;;6.63;;
77769;SDS011;66961;51.482;9.160;2023-11-18T05:58:44;15.50;;;7.85;;
77769;SDS011;66961;51.482;9.160;2023-11-18T06:01:10;17.23;;;9.38;;
77769;SDS011;66961;51.482;9.160;2023-11-18T06:03:36;20.02;;;9.88;;
77769;SDS011;66961;51.482;9.160;2023-11-18T06:06:03;20.02;;;9.18;;
77769;SDS011;66961;51.482;9.160;2023-11-18T06:08:28;17.30;;;9.55;;
77769;SDS011;66961;51.482;9.160;2023-11-18T06:10:53;18.03;;;9.43;;
77769;SDS011;66961;51.482;9.160;2023-11-18T06:13:19;17.20;;;8.23;;
77769;SDS011;66961;51.482;9.160;2023-11-18T06:15:44;16.70;;;7.70;;
77769;SDS011;66961;51.482;9.160;2023-11-18T06:18:09;16.73;;;8.13;;
77769;SDS011;66961;51.482;9.160;2023-11-18T06:20:35;16.73;;;8.43;;
77769;SDS011;66961;51.482;9.160;2023-11-18T06:23:00;19.00;;;8.80;;
77769;SDS011;66961;51.482;9.160;2023-11-18T06:25:26;17.42;;;8.50;;
77769;SDS011;66961;51.482;9.160;2023-11-18T06:27:51;15.93;;;8.10;;
77769;SDS011;66961;51.482;9.160;2023-11-18T06:30:16;15.95;;;8.20;;
77769;SDS011;66961;51.482;9.160;2023-11-18T06:32:42;16.73;;;7.50;;
77769;SDS011;66961;51.482;9.160;2023-11-18T06:35:07;15.43;;;7.85;;
77769;SDS011;66961;51.482;9.160;2023-11-18T06:37:32;18.55;;;8.27;;
77769;SDS011;66961;51.482;9.160;2023-11-18T06:39:58;14.90;;;7.93;;
77769;SDS011;66961;51.482;9.160;2023-11-18T06:42:23;16.27;;;7.23;;
77769;SDS011;66961;51.482;9.160;2023-11-18T06:44:48;17.03;;;7.37;;
77769;SDS011;66961;51.482;9.160;2023-11-18T06:47:14;13.67;;;7.20;;
77769;SDS011;66961;51.482;9.160;2023-11-18T06:49:39;12.10;;;7.10;;
77769;SDS011;66961;51.482;9.160;2023-11-18T06:52:04;15.43;;;7.37;;
77769;SDS011;66961;51.482;9.160;2023-11-18T06:54:30;16.90;;;9.23;;
77769;SDS011;66961;51.482;9.160;2023-11-18T06:56:55;16.77;;;7.78;;
77769;SDS011;66961;51.482;9.160;2023-11-18T06:59:21;20.92;;;9.00;;
77769;SDS011;66961;51.482;9.160;2023-11-18T07:01:46;16.67;;;8.57;;
77769;SDS011;66961;51.482;9.160;2023-11-18T07:04:11;18.50;;;8.33;;
77769;SDS011;66961;51.482;9.160;2023-11-18T07:06:37;16.13;;;8.37;;
77769;SDS011;66961;51.482;9.160;2023-11-18T07:09:02;17.73;;;8.52;;
77769;SDS011;66961;51.482;9.160;2023-11-18T07:11:28;17.42;;;8.52;;
77769;SDS011;66961;51.482;9.160;2023-11-18T07:13:53;18.13;;;8.57;;
77769;SDS011;66961;51.482;9.160;2023-11-18T07:16:18;19.67;;;8.10;;
77769;SDS011;66961;51.482;9.160;2023-11-18T07:18:43;16.70;;;8.13;;
77769;SDS011;66961;51.482;9.160;2023-11-18T07:21:09;18.37;;;8.27;;
77769;SDS011;66961;51.482;9.160;2023-11-18T07:23:34;14.87;;;7.97;;
77769;SDS011;66961;51.482;9.160;2023-11-18T07:26:00;14.65;;;7.65;;
77769;SDS011;66961;51.482;9.160;2023-11-18T07:28:26;14.02;;;7.82;;
77769;SDS011;66961;51.482;9.160;2023-11-18T07:30:52;15.15;;;7.03;;
77769;SDS011;66961;51.482;9.160;2023-11-18T07:33:18;13.27;;;7.25;;
77769;SDS011;66961;51.482;9.160;2023-11-18T07:35:43;12.07;;;7.43;;
77769;SDS011;66961;51.482;9.160;2023-11-18T07:38:09;12.07;;;7.40;;
77769;SDS011;66961;51.482;9.160;2023-11-18T07:40:34;16.33;;;8.10;;
77769;SDS011;66961;51.482;9.160;2023-11-18T07:43:00;12.77;;;7.03;;
77769;SDS011;66961;51.482;9.160;2023-11-18T07:45:25;13.05;;;7.03;;
77769;SDS011;66961;51.482;9.160;2023-11-18T07:47:50;13.03;;;7.10;;
77769;SDS011;66961;51.482;9.160;2023-11-18T07:50:16;12.10;;;7.10;;
77769;SDS011;66961;51.482;9.160;2023-11-18T07:52:42;13.98;;;6.95;;
77769;SDS011;66961;51.482;9.160;2023-11-18T07:55:07;13.10;;;6.27;;
77769;SDS011;66961;51.482;9.160;2023-11-18T07:57:33;13.63;;;6.93;;
77769;SDS011;66961;51.482;9.160;2023-11-18T07:59:58;13.37;;;7.10;;
77769;SDS011;66961;51.482;9.160;2023-11-18T08:02:23;17.63;;;7.90;;
77769;SDS011;66961;51.482;9.160;2023-11-18T08:04:48;16.30;;;8.07;;
77769;SDS011;66961;51.482;9.160;2023-11-18T08:07:14;13.27;;;7.07;;
77769;SDS011;66961;51.482;9.160;2023-11-18T08:09:39;18.57;;;10.30;;
77769;SDS011;66961;51.482;9.160;2023-11-18T08:12:05;18.50;;;10.33;;
77769;SDS011;66961;51.482;9.160;2023-11-18T08:14:31;20.50;;;11.15;;
77769;SDS011;66961;51.482;9.160;2023-11-18T08:16:56;18.90;;;9.60;;
77769;SDS011;66961;51.482;9.160;2023-11-18T08:19:21;25.87;;;9.60;;
77769;SDS011;66961;51.482;9.160;2023-11-18T08:21:46;16.60;;;9.50;;
77769;SDS011;66961;51.482;9.160;2023-11-18T08:24:12;18.73;;;9.97;;
77769;SDS011;66961;51.482;9.160;2023-11-18T08:26:37;22.83;;;10.63;;
77769;SDS011;66961;51.482;9.160;2023-11-18T08:29:02;18.13;;;10.43;;
77769;SDS011;66961;51.482;9.160;2023-11-18T08:31:27;21.45;;;11.88;;
77769;SDS011;66961;51.482;9.160;2023-11-18T08:33:53;19.10;;;8.87;;
77769;SDS011;66961;51.482;9.160;2023-11-18T08:36:18;15.73;;;7.80;;
77769;SDS011;66961;51.482;9.160;2023-11-18T08:38:43;12.20;;;6.63;;
77769;SDS011;66961;51.482;9.160;2023-11-18T08:41:08;15.87;;;8.10;;
77769;SDS011;66961;51.482;9.160;2023-11-18T08:43:34;16.57;;;9.83;;
77769;SDS011;66961;51.482;9.160;2023-11-18T08:45:59;15.25;;;9.38;;
77769;SDS011;66961;51.482;9.160;2023-11-18T08:48:25;17.07;;;9.70;;
77769;SDS011;66961;51.482;9.160;2023-11-18T08:50:50;17.70;;;9.33;;
77769;SDS011;66961;51.482;9.160;2023-11-18T08:53:15;16.43;;;10.00;;
77769;SDS011;66961;51.482;9.160;2023-11-18T08:55:40;18.43;;;10.40;;
77769;SDS011;66961;51.482;9.160;2023-11-18T08:58:06;15.55;;;8.82;;
77769;SDS011;66961;51.482;9.160;2023-11-18T09:00:35;16.45;;;10.43;;
77769;SDS011;66961;51.482;9.160;2023-11-18T09:03:01;20.30;;;10.33;;
77769;SDS011;66961;51.482;9.160;2023-11-18T09:05:26;18.88;;;9.75;;
77769;SDS011;66961;51.482;9.160;2023-11-18T09:07:52;15.00;;;9.77;;
77769;SDS011;66961;51.482;9.160;2023-11-18T09:10:17;14.80;;;9.53;;
77769;SDS011;66961;51.482;9.160;2023-11-18T09:12:42;14.27;;;8.43;;
77769;SDS011;66961;51.482;9.160;2023-11-18T09:15:08;15.10;;;9.37;;
77769;SDS011;66961;51.482;9.160;2023-11-18T09:17:33;19.77;;;9.68;;
77769;SDS011;66961;51.482;9.160;2023-11-18T09:19:58;14.90;;;9.57;;
77769;SDS011;66961;51.482;9.160;2023-11-18T09:22:24;15.57;;;9.73;;
77769;SDS011;66961;51.482;9.160;2023-11-18T09:24:49;14.73;;;9.30;;
77769;SDS011;66961;51.482;9.160;2023-11-18T09:27:15;14.38;;;8.93;;
77769;SDS011;66961;51.482;9.160;2023-11-18T09:29:40;13.43;;;7.60;;
77769;SDS011;66961;51.482;9.160;2023-11-18T09:32:05;12.63;;;8.00;;
77769;SDS011;66961;51.482;9.160;2023-11-18T09:34:31;13.00;;;7.82;;
77769;SDS011;66961;51.482;9.160;2023-11-18T09:36:56;10.98;;;6.15;;
77769;SDS011;66961;51.482;9.160;2023-11-18T09:39:21;10.87;;;6.40;;
77769;SDS011;66961;51.482;9.160;2023-11-18T09:41:46;12.80;;;6.60;;
77769;SDS011;66961;51.482;9.160;2023-11-18T09:44:12;12.90;;;6.83;;
77769;SDS011;66961;51.482;9.160;2023-11-18T09:46:38;12.23;;;6.20;;
77769;SDS011;66961;51.482;9.160;2023-11-18T09:49:17;10.98;;;6.68;;
77769;SDS011;66961;51.482;9.160;2023-11-18T09:51:50;10.60;;;6.38;;
77769;SDS011;66961;51.482;9.160;2023-11-18T09:54:26;12.07;;;5.97;;
77769;SDS011;66961;51.482;9.160;2023-11-18T09:59:34;12.02;;;5.95;;
77769;SDS011;66961;51.482;9.160;2023-11-18T10:02:07;11.27;;;5.85;;
77769;SDS011;66961;51.482;9.160;2023-11-18T10:04:32;10.02;;;5.88;;
77769;SDS011;66961;51.482;9.160;2023-11-18T10:06:58;13.80;;;6.28;;
77769;SDS011;66961;51.482;9.160;2023-11-18T10:09:27;10.10;;;5.47;;
77769;SDS011;66961;51.482;9.160;2023-11-18T10:11:52;9.23;;;5.83;;
77769;SDS011;66961;51.482;9.160;2023-11-18T10:14:17;11.23;;;6.47;;
77769;SDS011;66961;51.482;9.160;2023-11-18T10:16:43;10.20;;;5.80;;
77769;SDS011;66961;51.482;9.160;2023-11-18T10:19:09;10.55;;;5.80;;
77769;SDS011;66961;51.482;9.160;2023-11-18T10:21:35;10.60;;;5.97;;
77769;SDS011;66961;51.482;9.160;2023-11-18T10:24:00;9.15;;;5.63;;
77769;SDS011;66961;51.482;9.160;2023-11-18T10:26:25;9.77;;;5.70;;
77769;SDS011;66961;51.482;9.160;2023-11-18T10:28:52;13.38;;;5.90;;
77769;SDS011;66961;51.482;9.160;2023-11-18T10:31:18;9.80;;;5.77;;
77769;SDS011;66961;51.482;9.160;2023-11-18T10:33:44;12.05;;;6.50;;
77769;SDS011;66961;51.482;9.160;2023-11-18T10:36:17;11.77;;;6.90;;
77769;SDS011;66961;51.482;9.160;2023-11-18T10:38:44;12.30;;;6.20;;
77769;SDS011;66961;51.482;9.160;2023-11-18T10:41:09;12.23;;;5.97;;
77769;SDS011;66961;51.482;9.160;2023-11-18T10:43:35;12.07;;;7.28;;
77769;SDS011;66961;51.482;9.160;2023-11-18T10:46:06;12.27;;;5.78;;
77769;SDS011;66961;51.482;9.160;2023-11-18T10:48:33;10.30;;;5.88;;
77769;SDS011;66961;51.482;9.160;2023-11-18T10:50:58;10.95;;;6.78;;
77769;SDS011;66961;51.482;9.160;2023-11-18T10:53:24;10.88;;;5.47;;
77769;SDS011;66961;51.482;9.160;2023-11-18T10:55:49;9.98;;;6.07;;
77769;SDS011;66961;51.482;9.160;2023-11-18T10:58:14;8.95;;;5.90;;
77769;SDS011;66961;51.482;9.160;2023-11-18T11:00:47;10.45;;;6.45;;
77769;SDS011;66961;51.482;9.160;2023-11-18T11:03:15;11.77;;;6.55;;
77769;SDS011;66961;51.482;9.160;2023-11-18T11:05:41;10.95;;;5.88;;
77769;SDS011;66961;51.482;9.160;2023-11-18T11:08:06;16.48;;;5.95;;
77769;SDS011;66961;51.482;9.160;2023-11-18T11:10:32;12.80;;;6.38;;
77769;SDS011;66961;51.482;9.160;2023-11-18T11:12:59;11.35;;;6.22;;
77769;SDS011;66961;51.482;9.160;2023-11-18T11:15:30;8.50;;;5.10;;
77769;SDS011;66961;51.482;9.160;2023-11-18T11:17:57;10.43;;;5.80;;
77769;SDS011;66961;51.482;9.160;2023-11-18T11:20:31;9.70;;;5.20;;
77769;SDS011;66961;51.482;9.160;2023-11-18T11:23:05;8.50;;;5.13;;
77769;SDS011;66961;51.482;9.160;2023-11-18T11:28:24;7.55;;;4.90;;
77769;SDS011;66961;51.482;9.160;2023-11-18T11:31:03;8.70;;;5.65;;
77769;SDS011;66961;51.482;9.160;2023-11-18T11:33:43;9.13;;;4.53;;
77769;SDS011;66961;51.482;9.160;2023-11-18T11:36:20;10.40;;;5.88;;
77769;SDS011;66961;51.482;9.160;2023-11-18T11:38:51;8.95;;;5.38;;
77769;SDS011;66961;51.482;9.160;2023-11-18T11:41:17;11.63;;;5.97;;
77769;SDS011;66961;51.482;9.160;2023-11-18T11:43:53;9.60;;;5.35;;
77769;SDS011;66961;51.482;9.160;2023-11-18T11:46:19;10.85;;;5.95;;
77769;SDS011;66961;51.482;9.160;2023-11-18T11:48:45;12.27;;;6.55;;
77769;SDS011;66961;51.482;9.160;2023-11-18T11:51:27;14.47;;;6.70;;
77769;SDS011;66961;51.482;9.160;2023-11-18T11:54:12;13.25;;;6.75;;
77769;SDS011;66961;51.482;9.160;2023-11-18T11:56:48;12.40;;;7.00;;
77769;SDS011;66961;51.482;9.160;2023-11-18T11:59:17;13.02;;;7.18;;
77769;SDS011;66961;51.482;9.160;2023-11-18T12:01:59;13.38;;;6.38;;
77769;SDS011;66961;51.482;9.160;2023-11-18T12:04:24;12.47;;;6.80;;
77769;SDS011;66961;51.482;9.160;2023-11-18T12:06:52;12.68;;;6.68;;
77769;SDS011;66961;51.482;9.160;2023-11-18T12:09:17;11.65;;;6.93;;
77769;SDS011;66961;51.482;9.160;2023-11-18T12:11:44;12.90;;;7.03;;
77769;SDS011;66961;51.482;9.160;2023-11-18T12:14:09;12.93;;;6.70;;
77769;SDS011;66961;51.482;9.160;2023-11-18T12:16:57;10.33;;;5.80;;
77769;SDS011;66961;51.482;9.160;2023-11-18T12:19:32;12.30;;;6.40;;
77769;SDS011;66961;51.482;9.160;2023-11-18T12:22:00;14.20;;;6.80;;
77769;SDS011;66961;51.482;9.160;2023-11-18T12:24:25;12.50;;;6.37;;
77769;SDS011;66961;51.482;9.160;2023-11-18T12:26:50;11.93;;;6.53;;
77769;SDS011;66961;51.482;9.160;2023-11-18T12:29:41;14.23;;;6.53;;
77769;SDS011;66961;51.482;9.160;2023-11-18T12:32:06;12.32;;;7.10;;
77769;SDS011;66961;51.482;9.160;2023-11-18T12:34:50;14.75;;;7.57;;
77769;SDS011;66961;51.482;9.160;2023-11-18T12:43:01;13.07;;;6.72;;
77769;SDS011;66961;51.482;9.160;2023-11-18T12:45:35;12.27;;;6.88;;
77769;SDS011;66961;51.482;9.160;2023-11-18T12:48:07;13.55;;;6.95;;
77769;SDS011;66961;51.482;9.160;2023-11-18T12:53:05;11.98;;;6.35;;
77769;SDS011;66961;51.482;9.160;2023-11-18T12:55:31;10.45;;;6.32;;
77769;SDS011;66961;51.482;9.160;2023-11-18T12:57:56;11.93;;;6.20;;
77769;SDS011;66961;51.482;9.160;2023-11-18T13:00:24;12.05;;;6.57;;
77769;SDS011;66961;51.482;9.160;2023-11-18T13:02:49;12.63;;;6.53;;
77769;SDS011;66961;51.482;9.160;2023-11-18T13:05:14;11.87;;;6.17;;
77769;SDS011;66961;51.482;9.160;2023-11-18T13:07:40;11.23;;;5.90;;
77769;SDS011;66961;51.482;9.160;2023-11-18T13:10:05;11.17;;;6.23;;
77769;SDS011;66961;51.482;9.160;2023-11-18T13:12:31;13.50;;;6.90;;
77769;SDS011;66961;51.482;9.160;2023-11-18T13:14:56;9.85;;;6.03;;
77769;SDS011;66961;51.482;9.160;2023-11-18T13:17:22;16.63;;;7.63;;
77769;SDS011;66961;51.482;9.160;2023-11-18T13:19:47;11.48;;;5.88;;
77769;SDS011;66961;51.482;9.160;2023-11-18T13:22:13;14.05;;;6.38;;
77769;SDS011;66961;51.482;9.160;2023-11-18T13:24:41;11.45;;;6.35;;
77769;SDS011;66961;51.482;9.160;2023-11-18T13:27:07;13.32;;;6.90;;
77769;SDS011;66961;51.482;9.160;2023-11-18T13:29:37;14.40;;;7.05;;
77769;SDS011;66961;51.482;9.160;2023-11-18T13:32:03;13.95;;;7.45;;
77769;SDS011;66961;51.482;9.160;2023-11-18T13:34:29;13.63;;;7.32;;
77769;SDS011;66961;51.482;9.160;2023-11-18T13:36:55;16.48;;;7.80;;
77769;SDS011;66961;51.482;9.160;2023-11-18T13:39:21;18.02;;;8.77;;
77769;SDS011;66961;51.482;9.160;2023-11-18T13:41:50;16.90;;;8.60;;
77769;SDS011;66961;51.482;9.160;2023-11-18T13:47:00;18.73;;;9.75;;
77769;SDS011;66961;51.482;9.160;2023-11-18T13:49:29;19.55;;;8.70;;
77769;SDS011;66961;51.482;9.160;2023-11-18T13:51:55;19.52;;;9.48;;
77769;SDS011;66961;51.482;9.160;2023-11-18T13:54:21;20.42;;;9.02;;
77769;SDS011;66961;51.482;9.160;2023-11-18T13:56:47;19.35;;;9.32;;
77769;SDS011;66961;51.482;9.160;2023-11-18T13:59:12;24.60;;;9.73;;
77769;SDS011;66961;51.482;9.160;2023-11-18T14:01:38;19.13;;;8.93;;
77769;SDS011;66961;51.482;9.160;2023-11-18T14:04:03;19.00;;;10.40;;
77769;SDS011;66961;51.482;9.160;2023-11-18T14:06:30;18.38;;;8.85;;
77769;SDS011;66961;51.482;9.160;2023-11-18T14:08:55;18.88;;;9.52;;
77769;SDS011;66961;51.482;9.160;2023-11-18T14:11:20;20.53;;;9.50;;
77769;SDS011;66961;51.482;9.160;2023-11-18T14:13:46;18.50;;;9.13;;
77769;SDS011;66961;51.482;9.160;2023-11-18T14:16:11;21.83;;;10.47;;
77769;SDS011;66961;51.482;9.160;2023-11-18T14:18:36;18.60;;;8.77;;
77769;SDS011;66961;51.482;9.160;2023-11-18T14:21:01;22.33;;;9.77;;
77769;SDS011;66961;51.482;9.160;2023-11-18T14:23:27;21.45;;;10.48;;
77769;SDS011;66961;51.482;9.160;2023-11-18T14:25:52;22.67;;;9.77;;
77769;SDS011;66961;51.482;9.160;2023-11-18T14:28:18;22.47;;;10.60;;
77769;SDS011;66961;51.482;9.160;2023-11-18T14:30:43;23.23;;;11.33;;
77769;SDS011;66961;51.482;9.160;2023-11-18T14:33:08;21.87;;;9.60;;
77769;SDS011;66961;51.482;9.160;2023-11-18T14:35:34;19.50;;;9.80;;
77769;SDS011;66961;51.482;9.160;2023-11-18T14:37:59;24.42;;;9.98;;
77769;SDS011;66961;51.482;9.160;2023-11-18T14:40:25;21.25;;;10.30;;
77769;SDS011;66961;51.482;9.160;2023-11-18T14:42:50;20.73;;;9.43;;
77769;SDS011;66961;51.482;9.160;2023-11-18T14:45:16;20.70;;;9.77;;